Time;durP1;ratioP1;P1;durP2;ratioP2;P2;SDS_P1;SDS_P2;PMS_P1;PMS_P2;Temp;Humidity;BMP_temperature;BMP_pressure;BME280_temperature;BME280_humidity;BME280_pressure;Samples;Min_cycle;Max_cycle;Signal;HPM_P1;HPM_P2
2021/03/04 00:00:15;;;;;;;12.02;4.72;;;6.20;67.40;;;;;;5033579;28;20025;-74
2021/03/04 00:02:41;;;;;;;11.13;3.80;;;6.00;68.50;;;;;;5034458;28;20018;-74
2021/03/04 00:05:09;;;;;;;7.63;3.97;;;6.00;69.40;;;;;;5034544;28;20068;-74
2021/03/04 00:07:36;;;;;;;7.50;3.50;;;6.10;68.40;;;;;;5034512;28;20025;-74
2021/03/04 00:10:07;;;;;;;8.32;3.70;;;6.10;69.60;;;;;;5034600;28;20026;-74
2021/03/04 00:12:33;;;;;;;10.40;4.57;;;6.10;69.40;;;;;;5034531;28;20063;-75
2021/03/04 00:14:59;;;;;;;5.03;2.90;;;6.20;68.50;;;;;;5034102;28;20458;-74
2021/03/04 00:17:25;;;;;;;12.88;3.50;;;6.30;68.00;;;;;;5034617;28;20030;-74
2021/03/04 00:19:50;;;;;;;6.35;3.20;;;6.30;67.70;;;;;;5034080;28;20032;-74
2021/03/04 00:22:16;;;;;;;4.90;2.63;;;6.50;67.80;;;;;;5034230;28;20433;-75
2021/03/04 00:24:42;;;;;;;9.43;3.53;;;6.70;66.60;;;;;;5034141;28;20071;-74
2021/03/04 00:27:07;;;;;;;5.88;3.13;;;6.60;66.80;;;;;;5032952;28;20120;-75
2021/03/04 00:29:33;;;;;;;6.05;3.42;;;6.20;68.30;;;;;;5034197;28;20029;-74
2021/03/04 00:31:59;;;;;;;4.60;3.08;;;5.80;70.10;;;;;;5034087;28;20030;-75
2021/03/04 00:34:25;;;;;;;7.13;3.08;;;5.80;71.00;;;;;;5033871;28;20021;-74
2021/03/04 00:36:51;;;;;;;5.28;2.85;;;5.70;71.00;;;;;;5033824;28;20021;-74
2021/03/04 00:39:17;;;;;;;5.13;2.80;;;5.70;71.30;;;;;;5033685;28;20472;-74
2021/03/04 00:41:42;;;;;;;7.78;4.03;;;5.80;70.40;;;;;;5032579;28;20072;-74
2021/03/04 00:44:09;;;;;;;7.03;2.90;;;6.10;69.00;;;;;;5033781;28;20037;-74
2021/03/04 00:46:35;;;;;;;6.65;2.78;;;6.20;68.70;;;;;;5033733;28;20025;-74
2021/03/04 00:49:01;;;;;;;4.57;2.25;;;6.40;67.60;;;;;;5032318;28;20036;-74
2021/03/04 00:51:28;;;;;;;4.05;2.13;;;6.60;67.50;;;;;;5033332;28;20028;-74
2021/03/04 00:53:53;;;;;;;4.32;2.17;;;6.60;65.30;;;;;;5032173;28;20029;-74
2021/03/04 00:56:19;;;;;;;8.20;2.33;;;6.60;65.90;;;;;;5032493;28;20048;-74
2021/03/04 00:58:45;;;;;;;2.83;2.08;;;6.70;65.90;;;;;;5033357;28;20388;-75
2021/03/04 01:01:11;;;;;;;6.80;2.15;;;6.80;65.80;;;;;;5032314;28;20030;-74
2021/03/04 01:03:37;;;;;;;5.60;2.70;;;7.00;65.00;;;;;;5033283;28;20037;-75
2021/03/04 01:06:03;;;;;;;4.05;2.10;;;6.80;65.10;;;;;;5033313;28;20021;-75
2021/03/04 01:08:29;;;;;;;3.72;2.30;;;6.80;66.40;;;;;;5033275;28;20408;-74
2021/03/04 01:10:55;;;;;;;5.82;3.40;;;6.70;66.80;;;;;;5033374;28;20033;-74
2021/03/04 01:13:22;;;;;;;4.95;2.50;;;6.60;67.40;;;;;;5031376;28;20029;-74
2021/03/04 01:15:48;;;;;;;3.83;2.38;;;6.50;67.90;;;;;;5032998;28;20477;-74
2021/03/04 01:18:14;;;;;;;4.13;1.98;;;6.60;67.70;;;;;;5033069;28;20021;-74
2021/03/04 01:20:40;;;;;;;4.65;2.03;;;6.50;66.20;;;;;;5033056;28;20051;-74
2021/03/04 01:23:06;;;;;;;3.38;1.70;;;6.30;66.40;;;;;;5033066;28;20017;-74
2021/03/04 01:25:31;;;;;;;7.85;1.52;;;6.30;66.10;;;;;;5033109;28;20535;-75
2021/03/04 01:27:57;;;;;;;3.10;1.90;;;6.40;66.20;;;;;;5032817;28;20021;-75
2021/03/04 01:30:26;;;;;;;5.13;1.85;;;6.50;65.80;;;;;;5031598;28;20389;-75
2021/03/04 01:32:52;;;;;;;5.82;1.92;;;6.50;65.20;;;;;;5032827;28;20099;-75
2021/03/04 01:35:19;;;;;;;3.22;1.75;;;6.50;65.20;;;;;;5032645;28;20455;-75
2021/03/04 01:37:44;;;;;;;4.05;2.55;;;6.50;64.70;;;;;;5031593;28;20104;-75
2021/03/04 01:40:13;;;;;;;4.00;2.17;;;6.60;65.10;;;;;;5032588;28;20121;-74
2021/03/04 01:42:39;;;;;;;2.63;1.58;;;6.40;65.00;;;;;;5031380;28;20045;-74
2021/03/04 01:45:09;;;;;;;8.23;1.80;;;6.40;65.20;;;;;;5031286;28;20282;-74
2021/03/04 01:47:36;;;;;;;4.53;1.60;;;6.30;65.30;;;;;;5032660;28;20570;-74
2021/03/04 01:50:05;;;;;;;3.97;1.40;;;6.30;65.50;;;;;;5032450;28;20447;-75
2021/03/04 01:52:31;;;;;;;10.38;1.92;;;6.40;65.00;;;;;;5032358;28;20108;-75
2021/03/04 01:54:58;;;;;;;2.97;1.80;;;6.40;65.40;;;;;;5032219;28;20025;-74
2021/03/04 01:57:25;;;;;;;5.10;1.75;;;6.50;65.10;;;;;;5032387;28;20024;-75
2021/03/04 01:59:51;;;;;;;4.25;1.40;;;6.60;65.00;;;;;;5032259;28;20056;-75
2021/03/04 02:02:17;;;;;;;2.92;1.67;;;6.90;64.60;;;;;;5032439;28;20017;-75
2021/03/04 02:04:43;;;;;;;4.78;1.40;;;6.90;65.10;;;;;;5014395;28;20511;-75
2021/03/04 02:07:34;;;;;;;2.17;1.90;;;7.00;65.20;;;;;;5030952;28;20133;-74
2021/03/04 02:10:18;;;;;;;3.08;1.95;;;7.00;65.20;;;;;;5030949;28;20033;-75
2021/03/04 02:13:13;;;;;;;3.03;1.70;;;6.80;65.90;;;;;;5032282;28;20108;-75
2021/03/04 02:16:14;;;;;;;2.92;1.88;;;6.60;66.50;;;;;;5032125;28;20036;-74
2021/03/04 02:18:43;;;;;;;5.55;2.50;;;6.50;68.40;;;;;;4999980;28;20038;-74
2021/03/04 02:21:17;;;;;;;6.82;2.03;;;6.40;66.80;;;;;;5032067;28;20104;-75
2021/03/04 02:24:31;;;;;;;3.30;1.95;;;6.20;67.10;;;;;;5031230;28;20022;-74
2021/03/04 02:27:07;;;;;;;3.53;2.08;;;6.20;67.20;;;;;;5032401;28;20100;-74
2021/03/04 02:29:42;;;;;;;5.32;2.28;;;5.90;67.30;;;;;;5031923;28;20018;-75
2021/03/04 02:32:09;;;;;;;3.10;1.90;;;5.70;68.00;;;;;;5032058;28;20281;-74
2021/03/04 02:34:39;;;;;;;3.08;2.20;;;5.70;68.50;;;;;;5031676;28;20109;-74
2021/03/04 02:37:05;;;;;;;4.90;1.73;;;5.60;68.20;;;;;;5030712;28;20022;-74
2021/03/04 02:39:32;;;;;;;3.50;2.00;;;5.70;67.40;;;;;;5031581;28;20505;-74
2021/03/04 02:41:59;;;;;;;1.92;1.58;;;5.70;67.00;;;;;;5031880;28;20037;-74
2021/03/04 02:44:26;;;;;;;6.32;2.67;;;6.00;67.10;;;;;;5030661;28;20026;-74
2021/03/04 02:46:52;;;;;;;7.65;2.08;;;6.30;66.30;;;;;;5031861;28;20032;-74
2021/03/04 02:49:20;;;;;;;4.95;2.15;;;6.70;65.50;;;;;;5031694;28;20033;-74
2021/03/04 02:51:46;;;;;;;5.20;1.70;;;6.80;64.50;;;;;;5031476;28;20432;-74
2021/03/04 02:54:13;;;;;;;5.68;1.48;;;6.70;64.20;;;;;;5030664;28;20464;-74
2021/03/04 02:56:41;;;;;;;5.38;1.90;;;6.60;64.00;;;;;;5013795;28;20022;-74
2021/03/04 02:59:09;;;;;;;4.88;2.00;;;6.50;64.60;;;;;;5031537;28;20041;-74
2021/03/04 03:01:35;;;;;;;6.55;1.98;;;6.50;65.50;;;;;;5031617;28;20022;-74
2021/03/04 03:04:02;;;;;;;3.92;1.90;;;6.50;64.90;;;;;;5031670;28;20112;-74
2021/03/04 03:06:29;;;;;;;6.10;1.80;;;6.50;65.40;;;;;;5031828;28;20030;-74
2021/03/04 03:08:56;;;;;;;2.67;1.80;;;6.20;65.90;;;;;;5031584;28;20044;-74
2021/03/04 03:11:24;;;;;;;7.07;1.55;;;6.20;66.20;;;;;;5031545;28;20033;-74
2021/03/04 03:13:52;;;;;;;1.80;1.45;;;6.20;66.60;;;;;;5030102;28;20022;-74
2021/03/04 03:16:18;;;;;;;3.03;1.60;;;6.20;67.00;;;;;;5030070;28;20068;-74
2021/03/04 03:18:43;;;;;;;5.63;1.83;;;6.20;66.80;;;;;;5030304;28;20053;-74
2021/03/04 03:21:10;;;;;;;7.68;2.10;;;6.00;67.50;;;;;;5031468;28;20530;-74
2021/03/04 03:23:36;;;;;;;3.17;1.65;;;5.70;68.80;;;;;;5031494;28;20033;-74
2021/03/04 03:26:01;;;;;;;3.67;1.60;;;5.50;70.00;;;;;;5031353;28;20554;-74
2021/03/04 03:28:27;;;;;;;3.72;2.17;;;5.50;71.30;;;;;;5030053;28;20036;-74
2021/03/04 03:30:55;;;;;;;3.88;2.05;;;5.40;70.90;;;;;;5031343;28;20026;-74
2021/03/04 03:33:21;;;;;;;2.88;1.73;;;5.50;71.20;;;;;;5031404;28;20022;-74
2021/03/04 03:35:47;;;;;;;5.05;1.63;;;5.60;71.20;;;;;;5032835;28;20018;-74
2021/03/04 03:38:15;;;;;;;4.00;2.20;;;5.80;70.50;;;;;;5033602;28;20554;-74
2021/03/04 03:40:47;;;;;;;2.80;1.60;;;5.80;70.40;;;;;;5034862;28;20033;-74
2021/03/04 03:43:15;;;;;;;5.60;1.77;;;5.70;70.70;;;;;;5034912;28;20033;-74
2021/03/04 03:45:45;;;;;;;4.75;1.95;;;5.90;70.70;;;;;;5034689;28;20515;-75
2021/03/04 03:48:13;;;;;;;5.00;2.08;;;6.10;69.90;;;;;;5035022;28;20477;-74
2021/03/04 03:50:53;;;;;;;6.50;2.63;;;6.30;69.20;;;;;;5033503;28;20064;-74
2021/03/04 03:53:20;;;;;;;7.93;2.35;;;6.40;69.10;;;;;;5033423;28;20025;-74
2021/03/04 03:55:52;;;;;;;3.25;1.85;;;6.30;69.20;;;;;;5034609;28;20381;-75
2021/03/04 03:58:20;;;;;;;9.30;2.10;;;6.20;69.60;;;;;;5034638;28;20017;-75
2021/03/04 04:00:46;;;;;;;4.57;1.60;;;6.20;70.20;;;;;;5034687;28;20272;-75
2021/03/04 04:03:12;;;;;;;20.73;2.85;;;6.20;70.20;;;;;;5034566;28;20075;-74
2021/03/04 04:05:38;;;;;;;5.50;2.10;;;6.30;69.60;;;;;;5034225;28;20022;-75
2021/03/04 04:08:04;;;;;;;11.05;2.40;;;6.20;70.20;;;;;;5033190;28;20049;-74
2021/03/04 04:10:32;;;;;;;3.00;1.98;;;6.20;69.60;;;;;;5034460;28;20021;-74
2021/03/04 04:12:59;;;;;;;12.10;2.58;;;6.20;69.70;;;;;;5034449;28;20026;-74
2021/03/04 04:15:26;;;;;;;6.75;1.45;;;6.30;69.30;;;;;;5034165;28;20065;-74
2021/03/04 04:17:56;;;;;;;3.38;1.75;;;6.30;68.90;;;;;;5034119;28;20037;-74
2021/03/04 04:20:21;;;;;;;4.65;1.58;;;6.40;68.60;;;;;;5034334;28;20017;-74
2021/03/04 04:22:48;;;;;;;3.22;1.60;;;6.50;67.80;;;;;;5034242;28;20022;-74
2021/03/04 04:25:14;;;;;;;3.75;1.70;;;6.60;67.30;;;;;;5034118;28;20513;-74
2021/03/04 04:27:43;;;;;;;4.82;1.90;;;6.70;66.70;;;;;;5034160;28;20366;-74
2021/03/04 04:30:10;;;;;;;3.63;1.77;;;6.80;66.30;;;;;;5032945;28;20025;-74
2021/03/04 04:32:36;;;;;;;3.28;1.70;;;6.80;65.80;;;;;;5033936;28;20041;-75
2021/03/04 04:35:02;;;;;;;5.72;2.15;;;6.80;65.20;;;;;;5033854;28;20029;-74
2021/03/04 04:37:27;;;;;;;7.88;2.28;;;6.70;66.20;;;;;;5033764;28;20096;-74
2021/03/04 04:39:53;;;;;;;7.72;1.90;;;6.90;66.70;;;;;;5033846;28;20172;-74
2021/03/04 04:42:19;;;;;;;7.57;1.52;;;6.80;65.60;;;;;;5033786;28;20025;-74
2021/03/04 04:44:45;;;;;;;3.35;1.58;;;6.90;65.40;;;;;;5032572;28;20018;-74
2021/03/04 04:47:11;;;;;;;4.68;1.48;;;7.00;64.10;;;;;;5033088;28;20025;-74
2021/03/04 04:49:37;;;;;;;9.25;2.75;;;7.00;63.20;;;;;;5033705;28;20039;-74
2021/03/04 04:52:03;;;;;;;10.45;2.25;;;6.70;65.50;;;;;;5033444;28;20105;-74
2021/03/04 04:54:28;;;;;;;11.60;2.20;;;6.30;67.70;;;;;;5033539;28;20083;-74
2021/03/04 04:56:54;;;;;;;11.88;2.22;;;6.40;68.30;;;;;;5033636;28;20070;-74
2021/03/04 04:59:20;;;;;;;6.97;1.90;;;6.40;68.10;;;;;;5032154;28;20493;-74
2021/03/04 05:01:46;;;;;;;3.58;1.90;;;6.40;68.50;;;;;;5032271;28;20424;-75
2021/03/04 05:04:12;;;;;;;11.65;2.35;;;6.20;69.70;;;;;;5015591;28;20040;-75
2021/03/04 05:06:37;;;;;;;9.07;2.13;;;6.20;70.00;;;;;;5033186;28;20029;-74
2021/03/04 05:09:03;;;;;;;3.55;1.85;;;6.10;69.80;;;;;;5032121;28;20539;-74
2021/03/04 05:11:29;;;;;;;43.05;3.58;;;6.30;69.60;;;;;;5033235;28;20032;-74
2021/03/04 05:13:55;;;;;;;9.40;2.17;;;6.30;69.50;;;;;;5033063;28;20022;-74
2021/03/04 05:16:20;;;;;;;3.15;1.90;;;6.40;69.40;;;;;;5033065;28;20385;-74
2021/03/04 05:18:46;;;;;;;4.35;1.80;;;6.40;69.40;;;;;;5033106;28;20025;-74
2021/03/04 05:21:12;;;;;;;5.53;1.60;;;6.50;69.00;;;;;;5033120;28;20038;-75
2021/03/04 05:23:37;;;;;;;5.03;1.60;;;6.60;68.30;;;;;;5033213;28;20159;-74
2021/03/04 05:26:03;;;;;;;4.50;2.03;;;6.70;68.30;;;;;;5032977;28;20041;-75
2021/03/04 05:28:29;;;;;;;8.02;2.25;;;6.70;67.90;;;;;;5032851;28;20032;-74
2021/03/04 05:30:54;;;;;;;8.18;2.28;;;6.80;67.70;;;;;;5033003;28;20037;-75
2021/03/04 05:33:21;;;;;;;8.82;2.08;;;6.80;67.60;;;;;;5032666;28;20033;-75
2021/03/04 05:35:46;;;;;;;5.60;2.10;;;6.80;67.10;;;;;;5031270;28;20025;-75
2021/03/04 05:38:12;;;;;;;4.57;1.98;;;6.70;67.60;;;;;;5032601;28;20105;-75
2021/03/04 05:40:38;;;;;;;9.95;2.35;;;6.70;67.40;;;;;;5032828;28;20382;-75
2021/03/04 05:43:04;;;;;;;11.90;3.08;;;6.60;67.60;;;;;;5032582;28;20045;-75
2021/03/04 05:45:30;;;;;;;4.90;2.20;;;6.50;67.40;;;;;;5031527;28;20440;-75
2021/03/04 05:47:57;;;;;;;17.13;2.30;;;6.50;67.80;;;;;;5032467;28;20053;-75
2021/03/04 05:50:26;;;;;;;9.38;2.30;;;6.70;67.40;;;;;;5032560;28;20030;-74
2021/03/04 05:53:09;;;;;;;18.65;2.40;;;6.90;66.50;;;;;;5032357;28;20034;-74
2021/03/04 05:55:36;;;;;;;14.15;2.70;;;7.00;65.90;;;;;;5032656;28;20532;-75
2021/03/04 05:58:05;;;;;;;4.47;1.75;;;6.80;66.50;;;;;;5032197;28;20017;-75
2021/03/04 06:00:32;;;;;;;4.68;2.10;;;6.80;66.70;;;;;;5032575;28;20044;-74
2021/03/04 06:02:58;;;;;;;3.50;1.90;;;6.70;67.20;;;;;;5032273;28;20021;-75
2021/03/04 06:05:25;;;;;;;7.78;2.10;;;6.70;67.50;;;;;;5032179;28;20539;-74
2021/03/04 06:07:51;;;;;;;2.67;2.08;;;6.70;67.30;;;;;;5037756;28;20029;-75
2021/03/04 06:10:17;;;;;;;6.07;2.38;;;6.70;67.30;;;;;;5035939;28;20031;-74
2021/03/04 06:12:43;;;;;;;10.38;2.15;;;6.80;67.20;;;;;;5040465;28;20072;-75
2021/03/04 06:15:10;;;;;;;5.22;1.98;;;6.90;66.90;;;;;;5042658;28;20021;-74
2021/03/04 06:17:37;;;;;;;3.45;2.15;;;7.00;66.20;;;;;;5041226;28;20480;-74
2021/03/04 06:20:08;;;;;;;16.85;2.40;;;7.00;66.40;;;;;;5033184;28;20053;-75
2021/03/04 06:22:36;;;;;;;6.85;2.08;;;7.00;66.00;;;;;;5031854;28;20026;-74
2021/03/04 06:25:12;;;;;;;8.25;2.10;;;6.80;66.40;;;;;;5042941;28;20090;-75
2021/03/04 06:27:42;;;;;;;5.32;2.00;;;6.60;66.20;;;;;;5045260;28;20029;-74
2021/03/04 06:30:16;;;;;;;15.80;2.45;;;6.70;66.90;;;;;;5034737;28;20025;-75
2021/03/04 06:33:24;;;;;;;12.20;3.72;;;6.80;67.10;;;;;;5038012;28;20029;-74
2021/03/04 06:35:50;;;;;;;11.35;4.43;;;6.80;66.40;;;;;;5037628;28;20125;-74
2021/03/04 06:38:19;;;;;;;24.17;4.80;;;6.70;67.30;;;;;;5033918;28;20124;-74
2021/03/04 06:40:46;;;;;;;17.30;3.08;;;6.80;67.50;;;;;;5043174;28;20068;-74
2021/03/04 06:43:24;;;;;;;8.98;2.60;;;6.90;67.30;;;;;;5038472;28;20051;-74
2021/03/04 06:46:00;;;;;;;23.88;3.20;;;7.00;66.70;;;;;;5037829;28;20029;-75
2021/03/04 06:48:26;;;;;;;4.65;2.30;;;7.00;66.80;;;;;;5031498;28;20030;-74
2021/03/04 06:50:59;;;;;;;15.88;2.72;;;7.00;67.10;;;;;;5035528;28;20040;-75
2021/03/04 06:53:26;;;;;;;25.35;2.88;;;7.00;67.30;;;;;;5026186;28;20025;-74
2021/03/04 06:56:00;;;;;;;4.25;2.25;;;7.00;67.40;;;;;;5033182;28;20072;-75
2021/03/04 06:58:29;;;;;;;7.88;2.67;;;7.10;66.70;;;;;;5041602;28;20021;-74
2021/03/04 07:01:08;;;;;;;7.80;1.90;;;7.30;65.90;;;;;;5033158;28;20017;-75
2021/03/04 07:03:44;;;;;;;3.97;2.17;;;7.40;65.40;;;;;;5042031;28;20036;-75
2021/03/04 07:06:13;;;;;;;4.45;2.17;;;7.50;65.40;;;;;;5036130;28;20112;-75
2021/03/04 07:08:41;;;;;;;8.57;2.42;;;7.50;65.70;;;;;;5036480;28;20029;-74
2021/03/04 07:11:11;;;;;;;4.15;2.17;;;7.50;66.90;;;;;;5039965;28;20091;-75
2021/03/04 07:13:39;;;;;;;13.68;2.28;;;7.60;66.50;;;;;;5047945;28;20108;-75
2021/03/04 07:16:28;;;;;;;8.80;2.78;;;7.60;66.60;;;;;;5049334;28;20053;-74
2021/03/04 07:18:59;;;;;;;13.70;2.30;;;7.50;67.30;;;;;;5038612;28;20053;-75
2021/03/04 07:21:26;;;;;;;8.32;2.38;;;7.60;67.50;;;;;;5048646;28;20021;-74
2021/03/04 07:23:52;;;;;;;10.02;2.67;;;7.50;68.30;;;;;;5041927;28;20032;-75
2021/03/04 07:26:19;;;;;;;11.80;2.38;;;7.50;67.60;;;;;;5045463;28;20616;-75
2021/03/04 07:28:46;;;;;;;24.90;3.50;;;7.60;67.80;;;;;;5039193;28;20389;-75
2021/03/04 07:31:14;;;;;;;5.32;2.03;;;7.70;67.00;;;;;;5048366;28;20534;-75
2021/03/04 07:33:45;;;;;;;20.88;5.25;;;7.70;65.90;;;;;;5047899;28;20108;-75
2021/03/04 07:36:13;;;;;;;7.82;2.08;;;7.70;65.20;;;;;;5038577;28;20021;-75
2021/03/04 07:38:39;;;;;;;8.40;2.08;;;7.70;65.00;;;;;;5039705;28;20036;-75
2021/03/04 07:41:13;;;;;;;3.13;1.85;;;7.70;64.70;;;;;;5045038;28;20504;-75
2021/03/04 07:43:54;;;;;;;2.60;1.95;;;7.70;64.40;;;;;;5047446;28;20485;-75
2021/03/04 07:46:50;;;;;;;11.07;2.20;;;7.80;64.90;;;;;;5042709;28;20049;-75
2021/03/04 07:49:16;;;;;;;6.63;1.83;;;7.80;64.00;;;;;;5037168;28;20088;-75
2021/03/04 07:51:47;;;;;;;5.93;2.00;;;7.90;63.50;;;;;;5042335;28;20036;-75
2021/03/04 07:54:29;;;;;;;10.63;3.60;;;7.90;62.80;;;;;;5048092;28;20025;-75
2021/03/04 07:57:08;;;;;;;5.07;2.08;;;8.00;62.90;;;;;;5042560;28;20267;-75
2021/03/04 07:59:35;;;;;;;6.72;1.98;;;8.00;61.90;;;;;;5035034;28;20028;-75
2021/03/04 08:02:03;;;;;;;7.00;1.90;;;8.00;62.00;;;;;;5044525;28;20456;-75
2021/03/04 08:04:30;;;;;;;10.32;2.33;;;8.00;61.70;;;;;;5048514;28;20017;-75
2021/03/04 08:06:57;;;;;;;6.63;2.15;;;8.00;61.70;;;;;;5047184;28;20096;-75
2021/03/04 08:09:32;;;;;;;5.90;1.80;;;8.00;61.60;;;;;;5029829;28;20108;-75
2021/03/04 08:12:11;;;;;;;16.02;3.67;;;8.00;61.40;;;;;;5053071;28;20017;-75
2021/03/04 08:14:40;;;;;;;10.00;2.50;;;8.20;61.80;;;;;;5039067;28;20033;-75
2021/03/04 08:17:07;;;;;;;17.55;2.35;;;8.10;60.90;;;;;;5035561;28;20439;-76
2021/03/04 08:19:34;;;;;;;12.77;2.53;;;8.20;61.10;;;;;;5019757;28;20032;-75
2021/03/04 08:22:06;;;;;;;4.45;2.15;;;8.20;60.60;;;;;;5047396;28;20030;-75
2021/03/04 08:24:34;;;;;;;8.35;3.17;;;8.20;60.90;;;;;;5026633;28;20033;-75
2021/03/04 08:27:00;;;;;;;6.13;3.13;;;8.20;60.70;;;;;;5031357;28;20025;-75
2021/03/04 08:29:26;;;;;;;10.25;3.55;;;8.20;61.00;;;;;;5047713;28;20025;-75
2021/03/04 08:31:55;;;;;;;10.25;2.85;;;8.20;61.30;;;;;;5035868;28;20030;-75
2021/03/04 08:34:22;;;;;;;17.23;2.67;;;8.20;61.30;;;;;;5050697;28;20029;-76
2021/03/04 08:36:50;;;;;;;12.43;4.20;;;8.10;62.40;;;;;;5032641;28;20044;-75
2021/03/04 08:39:17;;;;;;;14.82;2.85;;;8.10;62.50;;;;;;5039493;28;20021;-75
2021/03/04 08:41:43;;;;;;;6.32;3.08;;;8.10;62.40;;;;;;5038899;28;20025;-75
2021/03/04 08:44:10;;;;;;;13.80;3.22;;;8.20;61.70;;;;;;5050551;28;20032;-75
2021/03/04 08:46:35;;;;;;;12.23;3.03;;;8.40;61.70;;;;;;5047553;28;20017;-75
2021/03/04 08:49:01;;;;;;;18.60;4.25;;;8.40;61.20;;;;;;5047210;28;20473;-75
2021/03/04 08:51:28;;;;;;;6.65;2.70;;;8.40;61.30;;;;;;5047551;28;20385;-75
2021/03/04 08:53:53;;;;;;;4.85;2.58;;;8.40;61.80;;;;;;5042411;28;20068;-75
2021/03/04 08:56:19;;;;;;;10.27;3.25;;;8.40;63.00;;;;;;5047359;28;20052;-75
2021/03/04 08:58:45;;;;;;;17.23;3.70;;;8.40;63.70;;;;;;5040340;28;20044;-75
2021/03/04 09:01:12;;;;;;;8.50;2.70;;;8.50;63.30;;;;;;5050977;28;20031;-75
2021/03/04 09:03:43;;;;;;;15.68;3.15;;;8.60;63.20;;;;;;5047524;28;20029;-75
2021/03/04 09:06:15;;;;;;;13.80;3.43;;;8.70;62.70;;;;;;5039050;28;20385;-75
2021/03/04 09:08:43;;;;;;;7.28;3.65;;;8.70;62.10;;;;;;5052206;28;20020;-73
2021/03/04 09:11:22;;;;;;;12.80;2.47;;;9.00;62.30;;;;;;5037516;28;20079;-73
2021/03/04 09:13:48;;;;;;;8.80;3.35;;;9.00;62.30;;;;;;5044475;28;20025;-73
2021/03/04 09:16:14;;;;;;;16.35;2.80;;;9.20;62.30;;;;;;5025296;28;20087;-73
2021/03/04 09:18:44;;;;;;;11.90;5.18;;;9.30;61.80;;;;;;5046132;28;20048;-73
2021/03/04 09:21:14;;;;;;;9.18;2.92;;;9.40;61.30;;;;;;5034342;28;20497;-73
2021/03/04 09:23:41;;;;;;;11.93;3.45;;;9.40;61.10;;;;;;5041281;28;20431;-73
2021/03/04 09:26:08;;;;;;;12.98;3.90;;;9.50;61.70;;;;;;5043998;28;20017;-73
2021/03/04 09:28:36;;;;;;;9.68;4.03;;;9.60;61.80;;;;;;5050295;28;20028;-73
2021/03/04 09:31:13;;;;;;;13.50;5.10;;;9.70;61.70;;;;;;5045463;28;20021;-73
2021/03/04 09:33:40;;;;;;;13.75;4.60;;;9.80;61.60;;;;;;5036228;28;20032;-72
2021/03/04 09:36:06;;;;;;;25.73;5.18;;;10.00;59.60;;;;;;5032376;28;20432;-72
2021/03/04 09:38:36;;;;;;;12.43;4.38;;;9.90;57.70;;;;;;5036373;28;20021;-72
2021/03/04 09:41:16;;;;;;;22.65;5.50;;;9.90;56.10;;;;;;5037775;28;20509;-72
2021/03/04 09:43:48;;;;;;;14.40;4.32;;;10.10;56.40;;;;;;5033895;28;20029;-75
2021/03/04 09:46:36;;;;;;;8.77;4.10;;;10.30;55.90;;;;;;5031934;28;20021;-75
2021/03/04 09:49:09;;;;;;;13.85;5.25;;;10.40;56.50;;;;;;5046722;28;20481;-73
2021/03/04 09:51:37;;;;;;;18.63;5.82;;;10.60;57.10;;;;;;5045978;28;20025;-75
2021/03/04 09:54:04;;;;;;;20.33;5.85;;;10.70;56.90;;;;;;5036803;28;20032;-73
2021/03/04 09:56:30;;;;;;;17.75;4.75;;;10.70;56.60;;;;;;5036927;28;20021;-74
2021/03/04 09:58:57;;;;;;;10.07;4.70;;;10.80;53.40;;;;;;5036554;28;20021;-73
2021/03/04 10:01:34;;;;;;;16.33;4.75;;;10.90;52.50;;;;;;5036083;28;20037;-74
2021/03/04 10:04:04;;;;;;;10.75;4.32;;;11.10;51.40;;;;;;5032184;28;20052;-74
2021/03/04 10:06:39;;;;;;;19.80;5.25;;;11.20;49.40;;;;;;5020297;28;20030;-73
2021/03/04 10:09:07;;;;;;;9.13;4.20;;;11.10;49.60;;;;;;5050564;22;20124;-74
2021/03/04 10:11:36;;;;;;;12.02;4.28;;;11.00;49.20;;;;;;5056717;28;20031;-74
2021/03/04 10:14:10;;;;;;;11.75;4.13;;;11.00;48.50;;;;;;5050078;28;20544;-73
2021/03/04 10:16:36;;;;;;;13.43;4.22;;;11.10;48.40;;;;;;5057728;28;20055;-74
2021/03/04 10:19:03;;;;;;;11.55;4.38;;;11.10;48.00;;;;;;5057676;28;20045;-74
2021/03/04 10:21:29;;;;;;;10.63;4.88;;;11.20;48.30;;;;;;5055408;28;20087;-74
2021/03/04 10:23:55;;;;;;;9.93;5.30;;;11.10;48.00;;;;;;5057264;28;20422;-73
2021/03/04 10:26:21;;;;;;;13.68;5.07;;;11.00;48.10;;;;;;5061221;28;20055;-74
2021/03/04 10:28:46;;;;;;;12.80;5.53;;;11.20;48.90;;;;;;5059461;28;20048;-74
2021/03/04 10:31:12;;;;;;;11.73;5.15;;;11.30;48.60;;;;;;5055830;28;20075;-74
2021/03/04 10:33:38;;;;;;;14.82;4.15;;;11.40;48.60;;;;;;5061668;28;20093;-74
2021/03/04 10:36:04;;;;;;;13.05;4.85;;;11.40;49.20;;;;;;5068250;28;20392;-74
2021/03/04 10:38:30;;;;;;;7.10;3.47;;;11.50;49.10;;;;;;5061575;28;20503;-74
2021/03/04 10:40:56;;;;;;;14.35;4.47;;;11.50;49.40;;;;;;5065556;28;20032;-74
2021/03/04 10:43:22;;;;;;;16.52;4.57;;;11.50;49.30;;;;;;5065289;28;20140;-74
2021/03/04 10:45:47;;;;;;;14.88;4.88;;;11.60;49.90;;;;;;5055969;28;20058;-75
2021/03/04 10:48:13;;;;;;;6.70;3.72;;;11.50;48.80;;;;;;5055947;28;20071;-75
2021/03/04 10:50:39;;;;;;;8.60;4.18;;;11.50;48.50;;;;;;5047278;28;20036;-74
2021/03/04 10:53:06;;;;;;;11.30;4.65;;;11.50;49.00;;;;;;5072902;28;20078;-74
2021/03/04 10:55:32;;;;;;;10.77;5.32;;;11.60;48.30;;;;;;5068714;28;20025;-74
2021/03/04 10:57:58;;;;;;;14.23;3.65;;;11.80;48.00;;;;;;5057548;28;20021;-74
2021/03/04 11:00:24;;;;;;;14.63;4.38;;;12.00;48.30;;;;;;5059760;28;20108;-74
2021/03/04 11:02:49;;;;;;;18.40;4.57;;;12.10;47.30;;;;;;5061787;28;20112;-74
2021/03/04 11:05:15;;;;;;;11.57;4.63;;;12.30;46.40;;;;;;5064244;28;20039;-75
2021/03/04 11:07:41;;;;;;;9.07;4.55;;;12.20;45.70;;;;;;5063293;28;20033;-74
2021/03/04 11:10:09;;;;;;;16.60;5.00;;;12.30;45.50;;;;;;5060925;28;20037;-74
2021/03/04 11:12:35;;;;;;;7.45;3.85;;;12.10;45.90;;;;;;5063187;28;20530;-74
2021/03/04 11:15:02;;;;;;;14.05;4.15;;;12.00;45.60;;;;;;5064107;28;20465;-74
2021/03/04 11:17:28;;;;;;;6.88;4.20;;;12.20;47.00;;;;;;5064815;28;20025;-74
2021/03/04 11:19:53;;;;;;;9.70;4.20;;;12.30;46.40;;;;;;5062480;28;20103;-74
2021/03/04 11:22:19;;;;;;;10.82;4.22;;;12.40;46.40;;;;;;5060909;28;20448;-74
2021/03/04 11:24:48;;;;;;;9.75;3.85;;;12.70;46.50;;;;;;5054798;28;20491;-74
2021/03/04 11:27:17;;;;;;;12.73;4.90;;;12.80;43.70;;;;;;5063824;28;20123;-74
2021/03/04 11:29:44;;;;;;;9.70;4.10;;;12.70;44.60;;;;;;5067938;28;20480;-74
2021/03/04 11:32:10;;;;;;;9.82;4.35;;;12.80;44.00;;;;;;5057341;28;20035;-74
2021/03/04 11:34:36;;;;;;;10.85;4.57;;;12.70;43.30;;;;;;5066048;28;20037;-74
2021/03/04 11:37:02;;;;;;;20.02;5.10;;;12.80;44.40;;;;;;5055178;28;20025;-74
2021/03/04 11:39:28;;;;;;;9.88;4.38;;;13.20;44.00;;;;;;5046362;28;20366;-74
2021/03/04 11:41:53;;;;;;;13.27;5.10;;;13.20;43.20;;;;;;5057764;28;20021;-74
2021/03/04 11:44:19;;;;;;;9.65;4.15;;;13.50;42.90;;;;;;5059014;28;20488;-74
2021/03/04 11:46:45;;;;;;;18.48;3.97;;;13.70;41.70;;;;;;5053391;28;20142;-74
2021/03/04 11:49:11;;;;;;;16.73;4.90;;;14.00;41.00;;;;;;5062530;28;20488;-74
2021/03/04 11:51:37;;;;;;;13.88;3.88;;;14.40;40.10;;;;;;5073577;28;20029;-75
2021/03/04 11:54:02;;;;;;;10.77;4.20;;;15.00;38.80;;;;;;5059523;28;20392;-74
2021/03/04 11:56:30;;;;;;;19.90;3.65;;;15.20;37.00;;;;;;5035210;28;20128;-74
2021/03/04 11:58:56;;;;;;;16.23;3.92;;;16.00;36.60;;;;;;5067402;28;20016;-74
2021/03/04 12:01:21;;;;;;;14.25;4.43;;;16.40;35.10;;;;;;5068141;28;20079;-74
2021/03/04 12:03:47;;;;;;;9.45;4.22;;;16.90;34.80;;;;;;5062321;28;20111;-75
2021/03/04 12:06:13;;;;;;;13.15;4.20;;;17.60;34.70;;;;;;5058576;28;20020;-73
2021/03/04 12:08:39;;;;;;;12.40;4.25;;;17.90;34.20;;;;;;5067660;28;20017;-73
2021/03/04 12:11:04;;;;;;;16.17;4.15;;;17.90;33.90;;;;;;5061151;28;20078;-73
2021/03/04 12:13:31;;;;;;;22.02;3.40;;;18.00;34.00;;;;;;5063004;28;20115;-73
2021/03/04 12:16:06;;;;;;;11.82;4.13;;;18.10;33.50;;;;;;5047484;28;20426;-74
2021/03/04 12:18:36;;;;;;;9.77;4.30;;;17.80;34.40;;;;;;5063039;28;20571;-73
2021/03/04 12:21:03;;;;;;;19.40;4.30;;;17.80;34.50;;;;;;5066092;28;20074;-73
2021/03/04 12:23:30;;;;;;;18.02;4.60;;;17.40;35.10;;;;;;5067963;28;20108;-74
2021/03/04 12:25:55;;;;;;;36.03;6.60;;;17.60;35.30;;;;;;5047897;28;20048;-74
2021/03/04 12:28:21;;;;;;;52.05;7.18;;;17.80;35.70;;;;;;5062119;28;20057;-74
2021/03/04 12:30:47;;;;;;;21.67;5.63;;;17.80;35.80;;;;;;5066593;28;20051;-74
2021/03/04 12:33:14;;;;;;;84.45;8.95;;;18.10;35.60;;;;;;5065539;28;20024;-74
2021/03/04 12:35:40;;;;;;;20.67;5.35;;;17.80;35.10;;;;;;5066984;28;20028;-75
2021/03/04 12:38:07;;;;;;;28.98;5.80;;;17.10;36.50;;;;;;5058928;28;20025;-75
2021/03/04 12:40:34;;;;;;;26.38;4.22;;;16.60;38.30;;;;;;5063784;28;20028;-75
2021/03/04 12:43:01;;;;;;;26.33;5.05;;;16.30;39.00;;;;;;5063405;28;20027;-75
2021/03/04 12:45:27;;;;;;;22.63;3.80;;;16.20;39.40;;;;;;5059627;28;20102;-75
2021/03/04 12:47:53;;;;;;;22.70;5.13;;;16.20;39.10;;;;;;5058100;28;20557;-75
2021/03/04 12:50:20;;;;;;;14.32;3.97;;;16.20;39.50;;;;;;5065495;28;20071;-75
2021/03/04 12:52:46;;;;;;;22.00;4.25;;;15.90;39.70;;;;;;5069643;28;20051;-75
2021/03/04 12:55:12;;;;;;;19.58;6.22;;;15.60;40.70;;;;;;5057292;28;20063;-75